createdAt,value
2018-11-23T00:00:29.807Z,82.41
2018-11-23T00:03:00.115Z,82.47
2018-11-23T00:05:29.732Z,82.36
2018-11-23T00:08:00.070Z,82.43
2018-11-23T00:10:31.371Z,82.43
2018-11-23T00:13:00.992Z,82.45
2018-11-23T00:18:24.771Z,82.48
2018-11-23T00:20:54.390Z,82.44
2018-11-23T00:23:23.970Z,82.49
2018-11-23T00:25:53.934Z,82.61
2018-11-23T00:28:23.549Z,82.73
2018-11-23T00:30:53.132Z,82.79
2018-11-23T00:33:22.714Z,82.75
2018-11-23T00:35:52.410Z,82.74
2018-11-23T00:38:22.007Z,82.84
2018-11-23T00:40:52.267Z,82.90
2018-11-23T00:43:21.899Z,82.88
2018-11-23T00:45:51.479Z,82.94
2018-11-23T00:48:21.096Z,83.08
2018-11-23T00:50:50.715Z,83.15
2018-11-23T00:53:20.313Z,83.23
2018-11-23T00:55:49.912Z,83.33
2018-11-23T00:58:19.527Z,83.41
2018-11-23T01:00:49.142Z,83.32
2018-11-23T01:03:18.720Z,83.17
2018-11-23T01:05:48.410Z,83.19
2018-11-23T01:08:18.001Z,83.24
2018-11-23T01:11:06.253Z,83.19
2018-11-23T01:13:35.972Z,83.38
2018-11-23T01:16:05.540Z,83.29
2018-11-23T01:18:35.142Z,83.36
2018-11-23T01:21:04.715Z,83.60
2018-11-23T01:23:34.303Z,83.69
2018-11-23T01:26:03.941Z,83.93
2018-11-23T01:28:33.616Z,84.05
2018-11-23T01:31:03.224Z,84.22
2018-11-23T01:33:32.841Z,84.26
2018-11-23T01:36:02.423Z,84.17
2018-11-23T01:38:32.326Z,84.04
2018-11-23T01:41:02.290Z,83.89
2018-11-23T01:43:32.104Z,83.80
2018-11-23T01:46:01.740Z,83.68
2018-11-23T01:48:31.354Z,83.67
2018-11-23T01:51:00.934Z,83.70
2018-11-23T01:53:30.551Z,83.61
2018-11-23T01:56:00.175Z,83.63
2018-11-23T01:58:29.791Z,83.51
2018-11-23T02:01:18.038Z,83.58
2018-11-23T02:06:41.942Z,83.37
2018-11-23T02:09:30.165Z,83.39
2018-11-23T02:11:59.808Z,83.57
2018-11-23T02:14:29.502Z,83.62
2018-11-23T02:17:17.822Z,83.40
2018-11-23T02:19:47.403Z,83.44
2018-11-23T02:22:16.985Z,83.36
2018-11-23T02:24:46.641Z,83.36
2018-11-23T02:27:16.268Z,83.32
2018-11-23T02:29:45.870Z,83.32
2018-11-23T02:32:34.437Z,83.34
2018-11-23T02:35:16.177Z,83.34
2018-11-23T02:37:46.200Z,83.26
2018-11-23T02:40:17.006Z,83.20
2018-11-23T02:42:46.678Z,83.26
2018-11-23T02:45:36.044Z,83.28
2018-11-23T02:50:59.373Z,83.21
2018-11-23T02:53:28.954Z,83.02
2018-11-23T02:55:58.621Z,82.96
2018-11-23T02:58:28.189Z,83.14
2018-11-23T03:00:57.850Z,83.10
2018-11-23T03:03:27.447Z,83.15
2018-11-23T03:08:32.002Z,83.13
2018-11-23T03:11:01.623Z,83.07
2018-11-23T03:13:31.208Z,83.18
2018-11-23T03:16:00.795Z,83.18
2018-11-23T03:18:30.522Z,82.98
2018-11-23T03:21:00.106Z,83.17
2018-11-23T03:23:29.670Z,83.30
2018-11-23T03:25:59.275Z,83.26
2018-11-23T03:28:29.212Z,83.20
2018-11-23T03:30:59.134Z,83.06
2018-11-23T03:33:28.789Z,83.05
2018-11-23T03:35:58.356Z,83.14
2018-11-23T03:38:27.957Z,83.23
2018-11-23T03:40:57.562Z,83.19
2018-11-23T03:43:27.150Z,83.03
2018-11-23T03:45:56.981Z,83.12
2018-11-23T03:48:26.664Z,83.15
2018-11-23T03:50:56.325Z,83.07
2018-11-23T03:53:25.956Z,83.19
2018-11-23T03:55:55.577Z,83.15
2018-11-23T03:58:25.153Z,83.17
2018-11-23T04:00:54.726Z,83.39
2018-11-23T04:03:24.446Z,83.30
2018-11-23T04:05:54.017Z,83.25
2018-11-23T04:08:23.754Z,83.18
2018-11-23T04:10:53.375Z,83.08
2018-11-23T04:13:22.939Z,83.13
2018-11-23T04:15:52.508Z,83.21
2018-11-23T04:18:22.388Z,83.21
2018-11-23T04:21:10.676Z,83.28
2018-11-23T04:23:40.246Z,83.16
2018-11-23T04:26:09.843Z,83.04
2018-11-23T04:28:39.419Z,83.04
2018-11-23T04:31:09.059Z,83.21
2018-11-23T04:33:38.893Z,83.26
2018-11-23T04:36:08.472Z,83.34
2018-11-23T04:38:56.769Z,83.19
2018-11-23T04:41:26.728Z,83.17
2018-11-23T04:43:56.314Z,83.40
2018-11-23T04:46:25.975Z,83.60
2018-11-23T04:48:55.707Z,83.52
2018-11-23T04:51:25.318Z,83.35
2018-11-23T04:53:54.951Z,83.29
2018-11-23T04:56:24.540Z,83.21
2018-11-23T04:58:54.189Z,83.18
2018-11-23T05:01:23.794Z,83.18
2018-11-23T05:03:53.917Z,83.18
2018-11-23T05:06:23.506Z,83.21
2018-11-23T05:08:53.214Z,83.17
2018-11-23T05:11:22.815Z,83.20
2018-11-23T05:13:52.417Z,83.22
2018-11-23T05:16:22.052Z,83.09
2018-11-23T05:18:51.660Z,83.06
2018-11-23T05:21:40.263Z,83.02
2018-11-23T05:24:21.146Z,83.12
2018-11-23T05:27:09.673Z,83.04
2018-11-23T05:29:39.324Z,83.18
2018-11-23T05:32:09.299Z,83.33
2018-11-23T05:34:38.902Z,83.52
2018-11-23T05:37:08.496Z,83.55
2018-11-23T05:39:38.098Z,83.40
2018-11-23T05:42:07.770Z,83.39
2018-11-23T05:44:37.452Z,83.38
2018-11-23T05:47:07.620Z,83.38
2018-11-23T05:49:37.258Z,83.26
2018-11-23T05:52:06.895Z,83.31
2018-11-23T05:54:36.709Z,83.40
2018-11-23T05:57:06.348Z,83.50
2018-11-23T05:59:35.982Z,83.58
2018-11-23T06:02:05.589Z,83.63
2018-11-23T06:04:35.484Z,83.77
2018-11-23T06:07:05.202Z,83.69
2018-11-23T06:09:35.104Z,83.71
2018-11-23T06:12:23.698Z,83.79
2018-11-23T06:14:53.352Z,83.74
2018-11-23T06:17:42.163Z,83.77
2018-11-23T06:20:14.224Z,83.69
2018-11-23T06:22:44.707Z,83.64
2018-11-23T06:25:34.876Z,83.54
2018-11-23T06:28:04.610Z,83.50
2018-11-23T06:30:34.233Z,83.57
2018-11-23T06:33:45.941Z,83.70
2018-11-23T06:36:15.542Z,83.62
2018-11-23T06:38:45.151Z,83.52
2018-11-23T06:41:14.833Z,83.51
2018-11-23T06:43:44.455Z,83.62
2018-11-23T06:46:14.392Z,83.67
2018-11-23T06:48:44.010Z,83.66
2018-11-23T06:51:13.788Z,83.69
2018-11-23T06:53:43.383Z,83.71
2018-11-23T06:56:31.664Z,83.95
2018-11-23T06:59:01.644Z,84.16
2018-11-23T07:01:31.255Z,84.13
2018-11-23T07:04:00.868Z,84.16
2018-11-23T07:06:30.571Z,84.07
2018-11-23T07:09:00.249Z,84.17
2018-11-23T07:11:49.118Z,84.23
2018-11-23T07:14:18.689Z,84.25
2018-11-23T07:16:48.348Z,84.43
2018-11-23T07:19:17.950Z,84.55
2018-11-23T07:21:47.603Z,84.58
2018-11-23T07:24:17.217Z,84.55
2018-11-23T07:29:42.393Z,84.44
2018-11-23T07:32:12.026Z,84.38
2018-11-23T07:34:41.617Z,84.38
2018-11-23T07:37:11.198Z,84.40
2018-11-23T07:40:19.819Z,84.50
2018-11-23T07:42:49.438Z,84.53
2018-11-23T07:45:19.018Z,84.53
2018-11-23T07:47:48.642Z,84.49
2018-11-23T07:50:18.298Z,84.42
2018-11-23T07:52:47.868Z,84.47
2018-11-23T07:55:17.487Z,84.43
2018-11-23T07:57:47.075Z,84.36
2018-11-23T08:00:18.837Z,84.50
2018-11-23T08:02:48.920Z,84.64
2018-11-23T08:05:37.738Z,84.69
2018-11-23T08:08:07.945Z,84.62
2018-11-23T08:10:36.330Z,84.62
2018-11-23T08:13:06.382Z,84.56
2018-11-23T08:15:36.016Z,84.42
2018-11-23T08:18:05.674Z,84.49
2018-11-23T08:20:54.008Z,84.52
2018-11-23T08:23:23.599Z,84.59
2018-11-23T08:26:12.219Z,84.60
2018-11-23T08:29:00.704Z,84.51
2018-11-23T08:31:30.320Z,84.62
2018-11-23T08:33:59.911Z,84.89
2018-11-23T08:36:29.542Z,84.81
2018-11-23T08:39:04.608Z,84.72
2018-11-23T08:41:28.863Z,84.80
2018-11-23T08:43:58.371Z,84.74
2018-11-23T08:46:28.015Z,84.81
2018-11-23T08:48:57.588Z,84.85
2018-11-23T08:51:27.420Z,84.76
2018-11-23T08:53:57.044Z,84.72
2018-11-23T08:56:26.689Z,84.77
2018-11-23T08:59:14.952Z,84.79
2018-11-23T09:01:44.545Z,84.90
2018-11-23T09:04:14.176Z,85.01
2018-11-23T09:06:43.917Z,85.10
2018-11-23T09:09:13.538Z,84.98
2018-11-23T09:11:43.121Z,84.89
2018-11-23T09:14:13.130Z,85.18
2018-11-23T09:17:01.813Z,85.24
2018-11-23T09:19:31.405Z,85.14
2018-11-23T09:22:23.535Z,85.10
2018-11-23T09:24:49.705Z,84.99
2018-11-23T09:27:19.322Z,85.06
2018-11-23T09:29:48.944Z,84.95
2018-11-23T09:32:19.429Z,84.89
2018-11-23T09:34:49.048Z,84.98
2018-11-23T09:37:18.970Z,84.95
2018-11-23T09:39:48.631Z,85.03
2018-11-23T09:42:18.204Z,85.12
2018-11-23T09:45:06.462Z,85.10
2018-11-23T09:50:30.144Z,85.12
2018-11-23T09:53:01.367Z,85.00
2018-11-23T09:55:31.988Z,84.83
2018-11-23T09:58:01.634Z,84.81
2018-11-23T10:00:50.187Z,84.81
2018-11-23T10:03:19.786Z,84.79
2018-11-23T10:05:49.391Z,84.91
2018-11-23T10:08:19.228Z,84.87
2018-11-23T10:10:48.892Z,84.84
2018-11-23T10:13:18.469Z,84.93
2018-11-23T10:15:48.394Z,84.93
2018-11-23T10:18:36.630Z,85.03
2018-11-23T10:21:25.473Z,85.06
2018-11-23T10:23:55.547Z,84.85
2018-11-23T10:26:25.117Z,84.75
2018-11-23T10:28:54.690Z,84.57
2018-11-23T10:31:24.306Z,84.34
2018-11-23T10:33:53.885Z,84.53
2018-11-23T10:36:23.529Z,84.60
2018-11-23T10:39:11.949Z,84.61
2018-11-23T10:41:41.535Z,84.49
2018-11-23T10:44:11.161Z,84.25
2018-11-23T10:46:40.808Z,84.36
2018-11-23T10:49:10.754Z,84.43
2018-11-23T10:51:40.329Z,84.37
2018-11-23T10:54:09.953Z,84.38
2018-11-23T10:56:39.836Z,84.19
2018-11-23T10:59:09.346Z,84.25
2018-11-23T11:01:57.670Z,84.09
2018-11-23T11:04:45.993Z,84.08
2018-11-23T11:07:15.625Z,84.17
2018-11-23T11:10:03.834Z,84.43
2018-11-23T11:12:34.223Z,84.45
2018-11-23T11:15:04.053Z,84.37
2018-11-23T11:17:33.634Z,84.37
2018-11-23T11:22:39.130Z,84.35
2018-11-23T11:25:09.887Z,84.25
2018-11-23T11:27:40.584Z,84.12
2018-11-23T11:30:30.354Z,84.16
2018-11-23T11:33:00.063Z,84.04
2018-11-23T11:35:29.644Z,83.99
2018-11-23T11:37:59.277Z,83.99
2018-11-23T11:40:29.004Z,83.91
2018-11-23T11:42:58.957Z,83.94
2018-11-23T11:45:28.580Z,83.90
2018-11-23T11:47:58.167Z,83.93
2018-11-23T11:50:27.743Z,83.74
2018-11-23T11:52:57.365Z,83.84
2018-11-23T11:55:26.956Z,83.94
2018-11-23T12:00:45.206Z,84.00
2018-11-23T12:03:14.823Z,83.96
2018-11-23T12:06:03.101Z,84.07
2018-11-23T12:08:32.716Z,84.11
2018-11-23T12:11:02.298Z,84.07
2018-11-23T12:16:26.352Z,83.87
2018-11-23T12:18:55.992Z,83.96
2018-11-23T12:21:25.580Z,83.98
2018-11-23T12:23:55.146Z,84.12
2018-11-23T12:26:24.769Z,84.19
2018-11-23T12:28:54.360Z,84.18
2018-11-23T12:31:24.379Z,84.09
2018-11-23T12:33:54.005Z,84.09
2018-11-23T12:36:23.643Z,83.97
2018-11-23T12:38:53.305Z,84.16
2018-11-23T12:41:23.272Z,84.19
2018-11-23T12:43:52.901Z,84.23
2018-11-23T12:46:23.230Z,84.26
2018-11-23T12:49:12.369Z,84.18
2018-11-23T12:51:41.946Z,84.11
2018-11-23T12:54:30.372Z,83.83
2018-11-23T12:57:00.094Z,83.75
2018-11-23T12:59:29.685Z,83.75
2018-11-23T13:01:59.961Z,83.74
2018-11-23T13:04:29.543Z,83.57
2018-11-23T13:07:18.326Z,83.57
2018-11-23T13:09:47.944Z,83.70
2018-11-23T13:12:17.556Z,83.50
2018-11-23T13:14:47.454Z,83.56
2018-11-23T13:17:35.937Z,83.38
2018-11-23T13:20:07.552Z,83.49
2018-11-23T13:22:37.307Z,83.48
2018-11-23T13:25:27.604Z,83.41
2018-11-23T13:27:57.360Z,83.42
2018-11-23T13:30:31.560Z,83.37
2018-11-23T13:33:01.139Z,83.28
2018-11-23T13:35:30.847Z,83.34
2018-11-23T13:38:00.714Z,83.36
2018-11-23T13:40:30.815Z,83.33
2018-11-23T13:43:01.569Z,83.30
2018-11-23T13:45:32.825Z,83.29
2018-11-23T13:48:02.633Z,83.27
2018-11-23T13:50:32.210Z,83.27
2018-11-23T13:53:02.803Z,83.17
2018-11-23T13:55:32.481Z,83.15
2018-11-23T13:58:02.354Z,83.22
2018-11-23T14:00:31.975Z,83.22
2018-11-23T14:03:02.160Z,83.29
2018-11-23T14:05:32.740Z,83.22
2018-11-23T14:08:03.932Z,83.10
2018-11-23T14:10:33.535Z,83.11
2018-11-23T14:13:03.129Z,83.11
2018-11-23T14:15:51.526Z,83.07
2018-11-23T14:18:42.830Z,83.17
2018-11-23T14:21:12.569Z,83.28
2018-11-23T14:23:42.157Z,83.25
2018-11-23T14:26:11.710Z,83.24
2018-11-23T14:28:41.451Z,83.20
2018-11-23T14:31:11.027Z,83.15
2018-11-23T14:33:40.704Z,83.05
2018-11-23T14:36:10.504Z,83.07
2018-11-23T14:38:40.101Z,83.12
2018-11-23T14:41:09.696Z,83.07
2018-11-23T14:43:39.543Z,83.09
2018-11-23T14:46:09.147Z,83.06
2018-11-23T14:48:38.850Z,83.02
2018-11-23T14:51:09.071Z,83.01
2018-11-23T14:53:38.671Z,83.03
2018-11-23T14:56:08.370Z,82.96
2018-11-23T14:58:38.022Z,82.97
2018-11-23T15:01:07.996Z,82.98
2018-11-23T15:03:37.755Z,82.85
2018-11-23T15:06:07.323Z,82.95
2018-11-23T15:08:36.909Z,82.95
2018-11-23T15:11:07.385Z,82.92
2018-11-23T15:13:36.984Z,82.91
2018-11-23T15:16:08.850Z,82.90
2018-11-23T15:18:38.426Z,83.04
2018-11-23T15:21:09.593Z,83.04
2018-11-23T15:23:39.099Z,83.01
2018-11-23T15:26:08.760Z,83.04
2018-11-23T15:28:38.831Z,82.87
2018-11-23T15:31:08.632Z,82.79
2018-11-23T15:33:38.220Z,82.75
2018-11-23T15:36:27.001Z,82.81
2018-11-23T15:39:15.477Z,82.78
2018-11-23T15:41:45.470Z,82.80
2018-11-23T15:44:33.724Z,82.71
2018-11-23T15:47:03.620Z,82.71
2018-11-23T15:49:33.234Z,82.76
2018-11-23T15:52:03.088Z,82.62
2018-11-23T15:54:32.956Z,82.68
2018-11-23T15:57:02.538Z,82.67
2018-11-23T15:59:32.141Z,82.62
2018-11-23T16:02:01.853Z,82.63
2018-11-23T16:04:50.070Z,82.49
2018-11-23T16:07:19.994Z,82.39
2018-11-23T16:09:49.601Z,82.17
2018-11-23T16:12:19.193Z,81.94
2018-11-23T16:14:49.469Z,81.87
2018-11-23T16:17:19.081Z,81.86
2018-11-23T16:20:07.440Z,81.92
2018-11-23T16:22:37.287Z,82.08
2018-11-23T16:25:08.442Z,81.98
2018-11-23T16:27:38.617Z,81.98
2018-11-23T16:30:12.916Z,81.81
2018-11-23T16:32:42.598Z,81.72
2018-11-23T16:35:12.367Z,81.68
2018-11-23T16:37:42.461Z,81.66
2018-11-23T16:40:14.313Z,81.65
2018-11-23T16:42:44.227Z,81.77
2018-11-23T16:45:34.105Z,81.64
2018-11-23T16:48:05.159Z,81.48
2018-11-23T16:50:34.949Z,81.52
2018-11-23T16:53:26.165Z,81.48
2018-11-23T16:55:55.761Z,81.57
2018-11-23T16:58:44.126Z,81.46
2018-11-23T17:01:13.709Z,81.44
2018-11-23T17:03:43.401Z,81.28
2018-11-23T17:06:13.255Z,81.25
2018-11-23T17:08:42.868Z,81.38
2018-11-23T17:11:12.492Z,81.59
2018-11-23T17:13:42.415Z,81.45
2018-11-23T17:16:30.998Z,81.63
2018-11-23T17:19:00.957Z,81.71
2018-11-23T17:21:30.541Z,81.61
2018-11-23T17:24:00.142Z,81.58
2018-11-23T17:26:29.876Z,81.49
2018-11-23T17:28:59.459Z,81.52
2018-11-23T17:31:29.059Z,81.68
2018-11-23T17:33:58.858Z,81.84
2018-11-23T17:36:28.449Z,81.71
2018-11-23T17:38:58.078Z,81.82
2018-11-23T17:41:28.445Z,81.86
2018-11-23T17:43:58.167Z,81.87
2018-11-23T17:46:27.686Z,81.85
2018-11-23T17:48:57.517Z,81.84
2018-11-23T17:51:27.169Z,81.89
2018-11-23T17:53:56.785Z,81.89
2018-11-23T17:56:29.900Z,81.94
2018-11-23T17:58:59.749Z,81.90
2018-11-23T18:01:48.257Z,81.80
2018-11-23T18:04:18.009Z,81.78
2018-11-23T18:06:47.600Z,81.89
2018-11-23T18:09:17.748Z,81.94
2018-11-23T18:11:47.357Z,81.84
2018-11-23T18:14:16.970Z,81.95
2018-11-23T18:16:46.904Z,81.99
2018-11-23T18:19:16.757Z,81.86
2018-11-23T18:21:46.333Z,81.83
2018-11-23T18:24:16.247Z,81.82
2018-11-23T18:26:45.851Z,81.84
2018-11-23T18:29:15.464Z,81.80
2018-11-23T18:31:45.203Z,81.81
2018-11-23T18:34:14.795Z,81.97
2018-11-23T18:36:44.466Z,81.94
2018-11-23T18:39:14.396Z,81.90
2018-11-23T18:41:43.968Z,81.93
2018-11-23T18:44:13.540Z,81.98
2018-11-23T18:46:43.412Z,81.93
2018-11-23T18:49:13.007Z,81.89
2018-11-23T18:51:42.615Z,81.77
2018-11-23T18:54:12.863Z,82.01
2018-11-23T18:56:42.436Z,82.13
2018-11-23T18:59:12.101Z,82.19
2018-11-23T19:01:41.851Z,82.29
2018-11-23T19:04:11.444Z,82.26
2018-11-23T19:06:41.411Z,82.23
2018-11-23T19:09:11.727Z,82.21
2018-11-23T19:11:41.695Z,82.28
2018-11-23T19:14:30.251Z,82.25
2018-11-23T19:17:00.046Z,82.14
2018-11-23T19:19:29.637Z,82.19
2018-11-23T19:21:59.523Z,82.21
2018-11-23T19:24:29.128Z,82.36
2018-11-23T19:26:59.337Z,82.45
2018-11-23T19:29:29.036Z,82.69
2018-11-23T19:32:17.247Z,82.74
2018-11-23T19:35:06.383Z,82.79
2018-11-23T19:37:35.994Z,82.85
2018-11-23T19:40:25.098Z,82.90
2018-11-23T19:43:13.601Z,82.95
2018-11-23T19:45:43.500Z,83.00
2018-11-23T19:48:13.532Z,83.02
2018-11-23T19:50:43.097Z,83.06
2018-11-23T19:53:13.018Z,83.16
2018-11-23T19:55:42.560Z,83.13
2018-11-23T19:58:12.222Z,83.12
2018-11-23T20:00:42.401Z,83.13
2018-11-23T20:03:12.038Z,83.18
2018-11-23T20:05:41.614Z,83.19
2018-11-23T20:08:11.523Z,83.21
2018-11-23T20:11:10.312Z,83.35
2018-11-23T20:13:40.129Z,83.39
2018-11-23T20:16:09.712Z,83.57
2018-11-23T20:18:39.652Z,83.68
2018-11-23T20:21:09.456Z,83.82
2018-11-23T20:23:39.043Z,84.01
2018-11-23T20:26:08.636Z,84.21
2018-11-23T20:28:38.562Z,84.28
2018-11-23T20:31:29.007Z,84.26
2018-11-23T20:33:58.970Z,84.13
2018-11-23T20:36:28.563Z,84.12
2018-11-23T20:38:58.176Z,84.21
2018-11-23T20:41:27.970Z,84.26
2018-11-23T20:43:57.576Z,84.33
2018-11-23T20:46:27.176Z,84.33
2018-11-23T20:48:57.440Z,84.20
2018-11-23T20:51:27.071Z,84.23
2018-11-23T20:53:56.760Z,84.37
2018-11-23T20:56:26.532Z,84.50
2018-11-23T20:58:56.142Z,84.61
2018-11-23T21:01:25.888Z,84.66
2018-11-23T21:03:55.702Z,84.62
2018-11-23T21:06:25.507Z,84.70
2018-11-23T21:09:14.270Z,84.68
2018-11-23T21:11:44.043Z,84.63
2018-11-23T21:14:13.620Z,84.72
2018-11-23T21:17:02.315Z,84.75
2018-11-23T21:19:31.976Z,84.74
2018-11-23T21:22:01.584Z,84.72
2018-11-23T21:24:31.522Z,84.72
2018-11-23T21:27:01.124Z,84.67
2018-11-23T21:29:30.765Z,84.63
2018-11-23T21:32:00.509Z,84.54
2018-11-23T21:34:30.134Z,84.46
2018-11-23T21:37:19.565Z,84.55
2018-11-23T21:39:49.187Z,84.53
2018-11-23T21:42:18.810Z,84.55
2018-11-23T21:45:08.259Z,84.46
2018-11-23T21:50:32.146Z,84.34
2018-11-23T21:53:01.735Z,84.32
2018-11-23T21:55:31.644Z,84.19
2018-11-23T21:58:01.391Z,84.16
2018-11-23T22:00:30.984Z,84.31
2018-11-23T22:03:02.983Z,84.30
2018-11-23T22:05:32.582Z,84.28
2018-11-23T22:08:02.183Z,84.24
2018-11-23T22:10:31.974Z,84.14
2018-11-23T22:13:20.223Z,84.21
2018-11-23T22:16:02.689Z,84.07
2018-11-23T22:18:32.331Z,84.17
2018-11-23T22:23:50.673Z,84.34
2018-11-23T22:26:20.272Z,84.22
2018-11-23T22:28:49.841Z,84.20
2018-11-23T22:31:19.794Z,84.02
2018-11-23T22:33:49.433Z,83.95
2018-11-23T22:36:38.190Z,84.08
2018-11-23T22:39:10.038Z,84.21
2018-11-23T22:41:58.485Z,84.23
2018-11-23T22:44:47.323Z,84.29
2018-11-23T22:47:17.175Z,84.25
2018-11-23T22:49:46.768Z,84.18
2018-11-23T22:52:16.356Z,84.06
2018-11-23T22:54:46.088Z,84.08
2018-11-23T22:57:15.667Z,84.15
2018-11-23T22:59:45.252Z,84.21
2018-11-23T23:02:15.121Z,84.20
2018-11-23T23:04:45.062Z,84.28
2018-11-23T23:07:14.647Z,84.29
2018-11-23T23:09:44.761Z,84.25
2018-11-23T23:12:14.353Z,84.40
2018-11-23T23:14:43.941Z,84.51
2018-11-23T23:17:13.887Z,84.61
2018-11-23T23:19:43.475Z,84.50
2018-11-23T23:22:13.344Z,84.59
2018-11-23T23:24:43.114Z,84.74
2018-11-23T23:27:12.759Z,84.78
2018-11-23T23:29:42.280Z,84.71
2018-11-23T23:32:12.142Z,84.72
2018-11-23T23:34:41.772Z,84.94
2018-11-23T23:37:11.351Z,84.97
2018-11-23T23:39:41.190Z,84.97
2018-11-23T23:42:11.183Z,84.97
2018-11-23T23:44:40.773Z,84.97
2018-11-23T23:47:10.534Z,84.96
2018-11-23T23:49:58.750Z,85.00
2018-11-23T23:52:47.340Z,84.99
2018-11-23T23:55:17.146Z,84.96
2018-11-23T23:57:47.391Z,84.90
